sensor_id;sensor_type;location;lat;lon;timestamp;P1;durP1;ratioP1;P2;durP2;ratioP2
21458;SDS011;10891;49.350;19.386;2023-02-03T00:00:34;9.13;;;3.78;;
21458;SDS011;10891;49.350;19.386;2023-02-03T00:03:01;5.10;;;2.53;;
21458;SDS011;10891;49.350;19.386;2023-02-03T00:05:29;4.60;;;2.90;;
21458;SDS011;10891;49.350;19.386;2023-02-03T00:07:58;8.35;;;3.53;;
21458;SDS011;10891;49.350;19.386;2023-02-03T00:10:25;5.88;;;3.17;;
21458;SDS011;10891;49.350;19.386;2023-02-03T00:12:52;7.38;;;3.13;;
21458;SDS011;10891;49.350;19.386;2023-02-03T00:15:22;6.10;;;2.97;;
21458;SDS011;10891;49.350;19.386;2023-02-03T00:17:49;5.10;;;3.08;;
21458;SDS011;10891;49.350;19.386;2023-02-03T00:20:16;7.40;;;3.17;;
21458;SDS011;10891;49.350;19.386;2023-02-03T00:22:43;7.32;;;2.92;;
21458;SDS011;10891;49.350;19.386;2023-02-03T00:25:11;5.97;;;3.10;;
21458;SDS011;10891;49.350;19.386;2023-02-03T00:27:38;4.45;;;2.03;;
21458;SDS011;10891;49.350;19.386;2023-02-03T00:30:05;9.10;;;2.78;;
21458;SDS011;10891;49.350;19.386;2023-02-03T00:32:32;10.88;;;3.63;;
21458;SDS011;10891;49.350;19.386;2023-02-03T00:34:59;1.77;;;1.52;;
21458;SDS011;10891;49.350;19.386;2023-02-03T00:37:26;4.25;;;2.20;;
21458;SDS011;10891;49.350;19.386;2023-02-03T00:39:53;5.45;;;2.50;;
21458;SDS011;10891;49.350;19.386;2023-02-03T00:42:21;6.15;;;3.25;;
21458;SDS011;10891;49.350;19.386;2023-02-03T00:44:48;10.77;;;2.70;;
21458;SDS011;10891;49.350;19.386;2023-02-03T00:47:15;5.55;;;2.90;;
21458;SDS011;10891;49.350;19.386;2023-02-03T00:49:42;4.38;;;3.50;;
21458;SDS011;10891;49.350;19.386;2023-02-03T00:52:08;6.63;;;3.30;;
21458;SDS011;10891;49.350;19.386;2023-02-03T00:54:35;9.05;;;2.95;;
21458;SDS011;10891;49.350;19.386;2023-02-03T00:57:02;2.80;;;1.95;;
21458;SDS011;10891;49.350;19.386;2023-02-03T00:59:30;5.50;;;2.75;;
21458;SDS011;10891;49.350;19.386;2023-02-03T01:01:57;9.23;;;4.13;;
21458;SDS011;10891;49.350;19.386;2023-02-03T01:04:24;5.78;;;3.53;;
21458;SDS011;10891;49.350;19.386;2023-02-03T01:06:51;4.28;;;2.45;;
21458;SDS011;10891;49.350;19.386;2023-02-03T01:09:21;6.60;;;3.35;;
21458;SDS011;10891;49.350;19.386;2023-02-03T01:11:48;7.80;;;3.03;;
21458;SDS011;10891;49.350;19.386;2023-02-03T01:14:15;6.25;;;3.20;;
21458;SDS011;10891;49.350;19.386;2023-02-03T01:16:43;4.53;;;2.85;;
21458;SDS011;10891;49.350;19.386;2023-02-03T01:19:10;5.18;;;2.95;;
21458;SDS011;10891;49.350;19.386;2023-02-03T01:21:37;5.90;;;3.47;;
21458;SDS011;10891;49.350;19.386;2023-02-03T01:24:04;1.25;;;1.02;;
21458;SDS011;10891;49.350;19.386;2023-02-03T01:26:31;5.65;;;3.45;;
21458;SDS011;10891;49.350;19.386;2023-02-03T01:28:58;6.57;;;3.70;;
21458;SDS011;10891;49.350;19.386;2023-02-03T01:31:26;8.07;;;4.28;;
21458;SDS011;10891;49.350;19.386;2023-02-03T01:33:56;4.07;;;2.45;;
21458;SDS011;10891;49.350;19.386;2023-02-03T01:36:23;5.07;;;4.57;;
21458;SDS011;10891;49.350;19.386;2023-02-03T01:38:54;5.03;;;3.42;;
21458;SDS011;10891;49.350;19.386;2023-02-03T01:41:21;5.75;;;4.18;;
21458;SDS011;10891;49.350;19.386;2023-02-03T01:43:50;13.18;;;6.10;;
21458;SDS011;10891;49.350;19.386;2023-02-03T01:46:21;5.55;;;3.40;;
21458;SDS011;10891;49.350;19.386;2023-02-03T01:48:53;5.35;;;3.05;;
21458;SDS011;10891;49.350;19.386;2023-02-03T01:51:27;7.80;;;3.38;;
21458;SDS011;10891;49.350;19.386;2023-02-03T01:53:54;22.02;;;8.02;;
21458;SDS011;10891;49.350;19.386;2023-02-03T01:56:22;7.07;;;3.40;;
21458;SDS011;10891;49.350;19.386;2023-02-03T01:58:52;9.80;;;5.47;;
21458;SDS011;10891;49.350;19.386;2023-02-03T02:01:19;7.68;;;3.95;;
21458;SDS011;10891;49.350;19.386;2023-02-03T02:03:47;9.43;;;4.10;;
21458;SDS011;10891;49.350;19.386;2023-02-03T02:06:21;16.92;;;6.32;;
21458;SDS011;10891;49.350;19.386;2023-02-03T02:08:49;10.52;;;6.05;;
21458;SDS011;10891;49.350;19.386;2023-02-03T02:11:17;7.75;;;4.65;;
21458;SDS011;10891;49.350;19.386;2023-02-03T02:13:45;12.98;;;6.80;;
21458;SDS011;10891;49.350;19.386;2023-02-03T02:16:14;9.95;;;6.45;;
21458;SDS011;10891;49.350;19.386;2023-02-03T02:18:49;6.10;;;3.80;;
21458;SDS011;10891;49.350;19.386;2023-02-03T02:21:43;6.57;;;3.70;;
21458;SDS011;10891;49.350;19.386;2023-02-03T02:24:36;5.70;;;3.95;;
21458;SDS011;10891;49.350;19.386;2023-02-03T02:27:24;6.55;;;3.88;;
21458;SDS011;10891;49.350;19.386;2023-02-03T02:33:10;30.50;;;11.40;;
21458;SDS011;10891;49.350;19.386;2023-02-03T02:35:46;27.88;;;10.55;;
21458;SDS011;10891;49.350;19.386;2023-02-03T02:38:24;27.50;;;10.95;;
21458;SDS011;10891;49.350;19.386;2023-02-03T02:41:04;14.55;;;6.68;;
21458;SDS011;10891;49.350;19.386;2023-02-03T02:43:38;9.80;;;4.50;;
21458;SDS011;10891;49.350;19.386;2023-02-03T02:46:09;7.28;;;4.13;;
21458;SDS011;10891;49.350;19.386;2023-02-03T02:48:41;6.82;;;4.15;;
21458;SDS011;10891;49.350;19.386;2023-02-03T02:51:11;9.05;;;4.38;;
21458;SDS011;10891;49.350;19.386;2023-02-03T02:53:41;5.82;;;3.80;;
21458;SDS011;10891;49.350;19.386;2023-02-03T02:56:14;6.85;;;3.67;;
21458;SDS011;10891;49.350;19.386;2023-02-03T02:58:43;8.68;;;4.68;;
21458;SDS011;10891;49.350;19.386;2023-02-03T03:01:12;11.60;;;5.72;;
21458;SDS011;10891;49.350;19.386;2023-02-03T03:03:41;30.13;;;9.73;;
21458;SDS011;10891;49.350;19.386;2023-02-03T03:06:11;6.38;;;3.85;;
21458;SDS011;10891;49.350;19.386;2023-02-03T03:08:44;4.22;;;3.22;;
21458;SDS011;10891;49.350;19.386;2023-02-03T03:11:15;4.93;;;3.38;;
21458;SDS011;10891;49.350;19.386;2023-02-03T03:13:44;6.65;;;3.40;;
21458;SDS011;10891;49.350;19.386;2023-02-03T03:16:13;4.18;;;3.20;;
21458;SDS011;10891;49.350;19.386;2023-02-03T03:18:45;7.72;;;3.78;;
21458;SDS011;10891;49.350;19.386;2023-02-03T03:21:15;5.50;;;3.88;;
21458;SDS011;10891;49.350;19.386;2023-02-03T03:23:45;5.00;;;3.72;;
21458;SDS011;10891;49.350;19.386;2023-02-03T03:26:15;10.93;;;5.60;;
21458;SDS011;10891;49.350;19.386;2023-02-03T03:28:47;7.10;;;4.13;;
21458;SDS011;10891;49.350;19.386;2023-02-03T03:31:17;5.50;;;3.55;;
21458;SDS011;10891;49.350;19.386;2023-02-03T03:33:46;5.65;;;3.25;;
21458;SDS011;10891;49.350;19.386;2023-02-03T03:36:17;6.70;;;3.05;;
21458;SDS011;10891;49.350;19.386;2023-02-03T03:38:51;6.00;;;3.85;;
21458;SDS011;10891;49.350;19.386;2023-02-03T03:41:24;4.57;;;3.20;;
21458;SDS011;10891;49.350;19.386;2023-02-03T03:43:58;4.63;;;3.38;;
21458;SDS011;10891;49.350;19.386;2023-02-03T03:46:30;7.82;;;3.20;;
21458;SDS011;10891;49.350;19.386;2023-02-03T03:49:02;12.48;;;5.95;;
21458;SDS011;10891;49.350;19.386;2023-02-03T03:51:32;14.45;;;6.38;;
21458;SDS011;10891;49.350;19.386;2023-02-03T03:54:03;11.60;;;5.03;;
21458;SDS011;10891;49.350;19.386;2023-02-03T03:56:34;6.22;;;3.53;;
21458;SDS011;10891;49.350;19.386;2023-02-03T03:59:04;7.18;;;4.65;;
21458;SDS011;10891;49.350;19.386;2023-02-03T04:01:34;9.95;;;4.70;;
21458;SDS011;10891;49.350;19.386;2023-02-03T04:04:02;30.05;;;12.73;;
21458;SDS011;10891;49.350;19.386;2023-02-03T04:06:33;5.75;;;2.92;;
21458;SDS011;10891;49.350;19.386;2023-02-03T04:09:01;6.22;;;3.55;;
21458;SDS011;10891;49.350;19.386;2023-02-03T04:11:29;79.40;;;21.13;;
21458;SDS011;10891;49.350;19.386;2023-02-03T04:14:13;25.85;;;10.73;;
21458;SDS011;10891;49.350;19.386;2023-02-03T04:16:40;21.63;;;11.35;;
21458;SDS011;10891;49.350;19.386;2023-02-03T04:19:08;49.00;;;16.70;;
21458;SDS011;10891;49.350;19.386;2023-02-03T04:21:35;106.15;;;22.95;;
21458;SDS011;10891;49.350;19.386;2023-02-03T04:24:02;36.05;;;15.20;;
21458;SDS011;10891;49.350;19.386;2023-02-03T04:26:29;49.17;;;21.60;;
21458;SDS011;10891;49.350;19.386;2023-02-03T04:28:56;113.90;;;38.55;;
21458;SDS011;10891;49.350;19.386;2023-02-03T04:31:23;20.00;;;9.40;;
21458;SDS011;10891;49.350;19.386;2023-02-03T04:33:50;11.98;;;5.32;;
21458;SDS011;10891;49.350;19.386;2023-02-03T04:36:18;12.55;;;5.50;;
21458;SDS011;10891;49.350;19.386;2023-02-03T04:38:47;11.45;;;6.43;;
21458;SDS011;10891;49.350;19.386;2023-02-03T04:41:14;11.40;;;5.60;;
21458;SDS011;10891;49.350;19.386;2023-02-03T04:43:41;51.38;;;21.23;;
21458;SDS011;10891;49.350;19.386;2023-02-03T04:46:07;17.60;;;9.67;;
21458;SDS011;10891;49.350;19.386;2023-02-03T04:48:35;35.95;;;14.75;;
21458;SDS011;10891;49.350;19.386;2023-02-03T04:51:02;40.47;;;16.13;;
21458;SDS011;10891;49.350;19.386;2023-02-03T04:53:33;29.10;;;11.85;;
21458;SDS011;10891;49.350;19.386;2023-02-03T04:56:00;13.45;;;8.00;;
21458;SDS011;10891;49.350;19.386;2023-02-03T04:58:27;15.13;;;9.18;;
21458;SDS011;10891;49.350;19.386;2023-02-03T05:00:54;7.57;;;5.47;;
21458;SDS011;10891;49.350;19.386;2023-02-03T05:03:21;12.25;;;8.80;;
21458;SDS011;10891;49.350;19.386;2023-02-03T05:05:48;15.00;;;6.30;;
21458;SDS011;10891;49.350;19.386;2023-02-03T05:08:15;30.73;;;12.10;;
21458;SDS011;10891;49.350;19.386;2023-02-03T05:10:43;34.72;;;11.70;;
21458;SDS011;10891;49.350;19.386;2023-02-03T05:13:10;36.83;;;13.65;;
21458;SDS011;10891;49.350;19.386;2023-02-03T05:15:37;11.90;;;6.90;;
21458;SDS011;10891;49.350;19.386;2023-02-03T05:18:04;46.77;;;13.17;;
21458;SDS011;10891;49.350;19.386;2023-02-03T05:20:31;20.50;;;9.45;;
21458;SDS011;10891;49.350;19.386;2023-02-03T05:22:58;21.40;;;14.43;;
21458;SDS011;10891;49.350;19.386;2023-02-03T05:25:25;128.77;;;34.35;;
21458;SDS011;10891;49.350;19.386;2023-02-03T05:27:53;28.20;;;13.95;;
21458;SDS011;10891;49.350;19.386;2023-02-03T05:30:20;13.68;;;7.88;;
21458;SDS011;10891;49.350;19.386;2023-02-03T05:32:47;57.75;;;16.63;;
21458;SDS011;10891;49.350;19.386;2023-02-03T05:35:15;44.53;;;18.60;;
21458;SDS011;10891;49.350;19.386;2023-02-03T05:37:42;10.80;;;5.90;;
21458;SDS011;10891;49.350;19.386;2023-02-03T05:40:10;9.70;;;5.60;;
21458;SDS011;10891;49.350;19.386;2023-02-03T05:42:57;34.70;;;13.37;;
21458;SDS011;10891;49.350;19.386;2023-02-03T05:45:23;22.13;;;11.23;;
21458;SDS011;10891;49.350;19.386;2023-02-03T05:47:50;22.27;;;11.73;;
21458;SDS011;10891;49.350;19.386;2023-02-03T05:50:17;28.80;;;13.48;;
21458;SDS011;10891;49.350;19.386;2023-02-03T05:52:46;19.17;;;10.18;;
21458;SDS011;10891;49.350;19.386;2023-02-03T05:55:13;22.17;;;9.53;;
21458;SDS011;10891;49.350;19.386;2023-02-03T05:57:40;29.70;;;10.38;;
21458;SDS011;10891;49.350;19.386;2023-02-03T06:00:09;25.65;;;9.35;;
21458;SDS011;10891;49.350;19.386;2023-02-03T06:02:37;25.40;;;7.78;;
21458;SDS011;10891;49.350;19.386;2023-02-03T06:05:05;77.17;;;18.37;;
21458;SDS011;10891;49.350;19.386;2023-02-03T06:07:32;49.57;;;13.50;;
21458;SDS011;10891;49.350;19.386;2023-02-03T06:09:59;18.80;;;8.40;;
21458;SDS011;10891;49.350;19.386;2023-02-03T06:12:26;28.20;;;11.25;;
21458;SDS011;10891;49.350;19.386;2023-02-03T06:14:53;408.77;;;118.70;;
21458;SDS011;10891;49.350;19.386;2023-02-03T06:17:21;408.50;;;113.10;;
21458;SDS011;10891;49.350;19.386;2023-02-03T06:19:48;218.10;;;66.30;;
21458;SDS011;10891;49.350;19.386;2023-02-03T06:22:15;57.20;;;19.67;;
21458;SDS011;10891;49.350;19.386;2023-02-03T06:24:43;29.20;;;11.30;;
21458;SDS011;10891;49.350;19.386;2023-02-03T06:27:12;15.88;;;6.00;;
21458;SDS011;10891;49.350;19.386;2023-02-03T06:29:39;13.60;;;7.13;;
21458;SDS011;10891;49.350;19.386;2023-02-03T06:32:06;21.38;;;11.18;;
21458;SDS011;10891;49.350;19.386;2023-02-03T06:34:35;30.35;;;13.63;;
21458;SDS011;10891;49.350;19.386;2023-02-03T06:37:02;37.58;;;15.98;;
21458;SDS011;10891;49.350;19.386;2023-02-03T06:39:28;17.07;;;6.83;;
21458;SDS011;10891;49.350;19.386;2023-02-03T06:41:55;27.23;;;9.43;;
21458;SDS011;10891;49.350;19.386;2023-02-03T06:44:22;14.30;;;5.93;;
21458;SDS011;10891;49.350;19.386;2023-02-03T06:46:49;27.35;;;11.40;;
21458;SDS011;10891;49.350;19.386;2023-02-03T06:49:16;24.42;;;6.65;;
21458;SDS011;10891;49.350;19.386;2023-02-03T06:51:45;10.48;;;5.05;;
21458;SDS011;10891;49.350;19.386;2023-02-03T06:54:12;12.45;;;4.72;;
21458;SDS011;10891;49.350;19.386;2023-02-03T06:56:39;19.13;;;9.18;;
21458;SDS011;10891;49.350;19.386;2023-02-03T06:59:06;26.73;;;10.13;;
21458;SDS011;10891;49.350;19.386;2023-02-03T07:01:34;21.83;;;10.65;;
21458;SDS011;10891;49.350;19.386;2023-02-03T07:04:01;15.02;;;7.57;;
21458;SDS011;10891;49.350;19.386;2023-02-03T07:06:28;32.95;;;13.02;;
21458;SDS011;10891;49.350;19.386;2023-02-03T07:08:59;22.08;;;7.75;;
21458;SDS011;10891;49.350;19.386;2023-02-03T07:11:27;39.17;;;13.23;;
21458;SDS011;10891;49.350;19.386;2023-02-03T07:13:54;53.22;;;17.17;;
21458;SDS011;10891;49.350;19.386;2023-02-03T07:16:21;38.53;;;12.23;;
21458;SDS011;10891;49.350;19.386;2023-02-03T07:18:48;38.95;;;14.88;;
21458;SDS011;10891;49.350;19.386;2023-02-03T07:21:15;35.15;;;15.15;;
21458;SDS011;10891;49.350;19.386;2023-02-03T07:23:45;22.95;;;10.52;;
21458;SDS011;10891;49.350;19.386;2023-02-03T07:26:14;32.25;;;13.32;;
21458;SDS011;10891;49.350;19.386;2023-02-03T07:28:41;37.20;;;13.65;;
21458;SDS011;10891;49.350;19.386;2023-02-03T07:31:08;34.90;;;13.23;;
21458;SDS011;10891;49.350;19.386;2023-02-03T07:33:35;16.90;;;7.63;;
21458;SDS011;10891;49.350;19.386;2023-02-03T07:36:03;20.42;;;9.15;;
21458;SDS011;10891;49.350;19.386;2023-02-03T07:38:31;83.22;;;34.03;;
21458;SDS011;10891;49.350;19.386;2023-02-03T07:40:58;37.38;;;15.27;;
21458;SDS011;10891;49.350;19.386;2023-02-03T07:43:26;53.53;;;19.55;;
21458;SDS011;10891;49.350;19.386;2023-02-03T07:45:53;63.55;;;21.80;;
21458;SDS011;10891;49.350;19.386;2023-02-03T07:48:20;49.95;;;18.02;;
21458;SDS011;10891;49.350;19.386;2023-02-03T07:50:47;51.40;;;20.58;;
21458;SDS011;10891;49.350;19.386;2023-02-03T07:53:15;59.75;;;19.85;;
21458;SDS011;10891;49.350;19.386;2023-02-03T07:55:42;41.33;;;13.82;;
21458;SDS011;10891;49.350;19.386;2023-02-03T07:58:08;50.63;;;14.23;;
21458;SDS011;10891;49.350;19.386;2023-02-03T08:00:37;51.83;;;17.13;;
21458;SDS011;10891;49.350;19.386;2023-02-03T08:03:03;50.00;;;17.98;;
21458;SDS011;10891;49.350;19.386;2023-02-03T08:05:30;32.25;;;11.55;;
21458;SDS011;10891;49.350;19.386;2023-02-03T08:07:57;45.17;;;23.52;;
21458;SDS011;10891;49.350;19.386;2023-02-03T08:10:24;17.27;;;8.57;;
21458;SDS011;10891;49.350;19.386;2023-02-03T08:12:51;40.42;;;14.98;;
21458;SDS011;10891;49.350;19.386;2023-02-03T08:15:19;34.38;;;18.83;;
21458;SDS011;10891;49.350;19.386;2023-02-03T08:17:47;30.73;;;14.35;;
21458;SDS011;10891;49.350;19.386;2023-02-03T08:20:14;31.00;;;14.65;;
21458;SDS011;10891;49.350;19.386;2023-02-03T08:22:41;24.20;;;13.43;;
21458;SDS011;10891;49.350;19.386;2023-02-03T08:25:08;36.67;;;16.55;;
21458;SDS011;10891;49.350;19.386;2023-02-03T08:27:36;44.35;;;20.73;;
21458;SDS011;10891;49.350;19.386;2023-02-03T08:30:03;17.98;;;7.85;;
21458;SDS011;10891;49.350;19.386;2023-02-03T08:32:31;41.92;;;25.45;;
21458;SDS011;10891;49.350;19.386;2023-02-03T08:35:00;29.73;;;15.98;;
21458;SDS011;10891;49.350;19.386;2023-02-03T08:37:27;41.63;;;18.67;;
21458;SDS011;10891;49.350;19.386;2023-02-03T08:39:56;30.88;;;13.48;;
21458;SDS011;10891;49.350;19.386;2023-02-03T08:42:24;43.05;;;18.70;;
21458;SDS011;10891;49.350;19.386;2023-02-03T08:44:50;31.60;;;14.68;;
21458;SDS011;10891;49.350;19.386;2023-02-03T08:47:17;28.30;;;13.90;;
21458;SDS011;10891;49.350;19.386;2023-02-03T08:49:44;25.73;;;12.52;;
21458;SDS011;10891;49.350;19.386;2023-02-03T08:52:13;21.08;;;11.93;;
21458;SDS011;10891;49.350;19.386;2023-02-03T08:54:40;33.90;;;19.58;;
21458;SDS011;10891;49.350;19.386;2023-02-03T08:57:07;43.80;;;26.65;;
21458;SDS011;10891;49.350;19.386;2023-02-03T08:59:37;18.58;;;9.07;;
21458;SDS011;10891;49.350;19.386;2023-02-03T09:02:05;15.90;;;9.13;;
21458;SDS011;10891;49.350;19.386;2023-02-03T09:04:33;13.27;;;6.38;;
21458;SDS011;10891;49.350;19.386;2023-02-03T09:07:00;14.73;;;5.95;;
21458;SDS011;10891;49.350;19.386;2023-02-03T09:09:29;5.70;;;3.92;;
21458;SDS011;10891;49.350;19.386;2023-02-03T09:11:56;5.63;;;3.85;;
21458;SDS011;10891;49.350;19.386;2023-02-03T09:14:26;14.45;;;7.68;;
21458;SDS011;10891;49.350;19.386;2023-02-03T09:16:54;9.57;;;4.78;;
21458;SDS011;10891;49.350;19.386;2023-02-03T09:19:21;19.25;;;7.28;;
21458;SDS011;10891;49.350;19.386;2023-02-03T09:21:48;26.55;;;11.60;;
21458;SDS011;10891;49.350;19.386;2023-02-03T09:24:14;18.73;;;12.80;;
21458;SDS011;10891;49.350;19.386;2023-02-03T09:26:43;11.15;;;5.00;;
21458;SDS011;10891;49.350;19.386;2023-02-03T09:29:10;12.00;;;6.45;;
21458;SDS011;10891;49.350;19.386;2023-02-03T09:31:37;15.50;;;5.97;;
21458;SDS011;10891;49.350;19.386;2023-02-03T09:34:04;37.22;;;13.07;;
21458;SDS011;10891;49.350;19.386;2023-02-03T09:36:31;25.70;;;11.32;;
21458;SDS011;10891;49.350;19.386;2023-02-03T09:38:58;31.60;;;13.40;;
21458;SDS011;10891;49.350;19.386;2023-02-03T09:41:29;18.92;;;7.78;;
21458;SDS011;10891;49.350;19.386;2023-02-03T09:44:11;11.95;;;5.32;;
21458;SDS011;10891;49.350;19.386;2023-02-03T09:46:45;26.50;;;10.15;;
21458;SDS011;10891;49.350;19.386;2023-02-03T09:49:17;8.50;;;3.30;;
21458;SDS011;10891;49.350;19.386;2023-02-03T09:51:51;6.90;;;3.53;;
21458;SDS011;10891;49.350;19.386;2023-02-03T09:54:22;4.03;;;2.55;;
21458;SDS011;10891;49.350;19.386;2023-02-03T09:56:54;6.70;;;3.63;;
21458;SDS011;10891;49.350;19.386;2023-02-03T09:59:25;9.82;;;2.30;;
21458;SDS011;10891;49.350;19.386;2023-02-03T10:01:57;2.35;;;1.90;;
21458;SDS011;10891;49.350;19.386;2023-02-03T10:04:35;4.28;;;2.72;;
21458;SDS011;10891;49.350;19.386;2023-02-03T10:07:06;3.35;;;2.40;;
21458;SDS011;10891;49.350;19.386;2023-02-03T10:09:43;4.03;;;2.58;;
21458;SDS011;10891;49.350;19.386;2023-02-03T10:12:26;34.78;;;18.00;;
21458;SDS011;10891;49.350;19.386;2023-02-03T10:15:14;16.02;;;9.40;;
21458;SDS011;10891;49.350;19.386;2023-02-03T10:17:56;11.52;;;7.82;;
21458;SDS011;10891;49.350;19.386;2023-02-03T10:20:29;15.40;;;6.72;;
21458;SDS011;10891;49.350;19.386;2023-02-03T10:23:01;10.68;;;3.95;;
21458;SDS011;10891;49.350;19.386;2023-02-03T10:25:32;12.80;;;5.82;;
21458;SDS011;10891;49.350;19.386;2023-02-03T10:28:04;20.67;;;6.85;;
21458;SDS011;10891;49.350;19.386;2023-02-03T10:30:42;29.33;;;7.43;;
21458;SDS011;10891;49.350;19.386;2023-02-03T10:33:14;16.10;;;4.63;;
21458;SDS011;10891;49.350;19.386;2023-02-03T10:35:44;13.20;;;7.88;;
21458;SDS011;10891;49.350;19.386;2023-02-03T10:38:19;10.73;;;7.05;;
21458;SDS011;10891;49.350;19.386;2023-02-03T10:41:01;4.55;;;3.47;;
21458;SDS011;10891;49.350;19.386;2023-02-03T10:43:28;10.43;;;3.65;;
21458;SDS011;10891;49.350;19.386;2023-02-03T10:46:17;36.88;;;9.75;;
21458;SDS011;10891;49.350;19.386;2023-02-03T10:48:45;51.08;;;12.25;;
21458;SDS011;10891;49.350;19.386;2023-02-03T10:51:15;8.70;;;3.15;;
21458;SDS011;10891;49.350;19.386;2023-02-03T10:53:45;35.70;;;9.52;;
21458;SDS011;10891;49.350;19.386;2023-02-03T10:56:13;7.47;;;4.40;;
21458;SDS011;10891;49.350;19.386;2023-02-03T10:58:46;7.28;;;4.05;;
21458;SDS011;10891;49.350;19.386;2023-02-03T11:01:15;21.38;;;7.32;;
21458;SDS011;10891;49.350;19.386;2023-02-03T11:03:52;9.43;;;4.47;;
21458;SDS011;10891;49.350;19.386;2023-02-03T11:06:23;20.60;;;9.50;;
21458;SDS011;10891;49.350;19.386;2023-02-03T11:08:51;9.27;;;5.72;;
21458;SDS011;10891;49.350;19.386;2023-02-03T11:11:22;24.10;;;12.57;;
21458;SDS011;10891;49.350;19.386;2023-02-03T11:13:51;32.97;;;17.65;;
21458;SDS011;10891;49.350;19.386;2023-02-03T11:16:21;15.25;;;7.80;;
21458;SDS011;10891;49.350;19.386;2023-02-03T11:18:53;35.35;;;22.02;;
21458;SDS011;10891;49.350;19.386;2023-02-03T11:21:22;11.63;;;8.77;;
21458;SDS011;10891;49.350;19.386;2023-02-03T11:23:55;18.13;;;9.57;;
21458;SDS011;10891;49.350;19.386;2023-02-03T11:26:28;12.35;;;7.35;;
21458;SDS011;10891;49.350;19.386;2023-02-03T11:28:58;9.48;;;5.40;;
21458;SDS011;10891;49.350;19.386;2023-02-03T11:31:28;10.90;;;8.75;;
21458;SDS011;10891;49.350;19.386;2023-02-03T11:33:58;5.88;;;3.45;;
21458;SDS011;10891;49.350;19.386;2023-02-03T11:36:28;9.80;;;7.50;;
21458;SDS011;10891;49.350;19.386;2023-02-03T11:39:09;9.60;;;7.30;;
21458;SDS011;10891;49.350;19.386;2023-02-03T11:41:59;4.22;;;3.83;;
21458;SDS011;10891;49.350;19.386;2023-02-03T11:44:27;11.88;;;7.78;;
21458;SDS011;10891;49.350;19.386;2023-02-03T11:46:59;32.08;;;19.90;;
21458;SDS011;10891;49.350;19.386;2023-02-03T11:49:33;14.07;;;6.15;;
21458;SDS011;10891;49.350;19.386;2023-02-03T11:52:27;10.75;;;3.85;;
21458;SDS011;10891;49.350;19.386;2023-02-03T11:55:12;29.67;;;12.48;;
21458;SDS011;10891;49.350;19.386;2023-02-03T11:57:51;29.30;;;13.70;;
21458;SDS011;10891;49.350;19.386;2023-02-03T12:00:29;35.20;;;13.77;;
21458;SDS011;10891;49.350;19.386;2023-02-03T12:03:10;44.45;;;15.27;;
21458;SDS011;10891;49.350;19.386;2023-02-03T12:06:03;19.77;;;11.10;;
21458;SDS011;10891;49.350;19.386;2023-02-03T12:08:50;18.27;;;10.18;;
21458;SDS011;10891;49.350;19.386;2023-02-03T12:11:31;21.70;;;10.23;;
21458;SDS011;10891;49.350;19.386;2023-02-03T12:17:08;35.28;;;16.40;;
21458;SDS011;10891;49.350;19.386;2023-02-03T12:20:02;26.35;;;13.60;;
21458;SDS011;10891;49.350;19.386;2023-02-03T12:22:39;31.58;;;21.70;;
21458;SDS011;10891;49.350;19.386;2023-02-03T12:25:27;26.98;;;12.75;;
21458;SDS011;10891;49.350;19.386;2023-02-03T12:28:04;15.90;;;8.68;;
21458;SDS011;10891;49.350;19.386;2023-02-03T12:30:42;16.67;;;6.20;;
21458;SDS011;10891;49.350;19.386;2023-02-03T12:33:15;19.98;;;10.45;;
21458;SDS011;10891;49.350;19.386;2023-02-03T12:35:47;17.65;;;7.82;;
21458;SDS011;10891;49.350;19.386;2023-02-03T12:38:20;10.13;;;5.38;;
21458;SDS011;10891;49.350;19.386;2023-02-03T12:40:57;22.35;;;10.43;;
21458;SDS011;10891;49.350;19.386;2023-02-03T12:43:26;11.57;;;5.72;;
21458;SDS011;10891;49.350;19.386;2023-02-03T12:46:03;44.83;;;17.08;;
21458;SDS011;10891;49.350;19.386;2023-02-03T12:48:41;15.27;;;7.35;;
21458;SDS011;10891;49.350;19.386;2023-02-03T12:51:17;13.55;;;6.40;;
21458;SDS011;10891;49.350;19.386;2023-02-03T12:53:53;11.07;;;4.95;;
21458;SDS011;10891;49.350;19.386;2023-02-03T12:56:29;17.15;;;7.97;;
21458;SDS011;10891;49.350;19.386;2023-02-03T12:59:04;12.35;;;5.45;;
21458;SDS011;10891;49.350;19.386;2023-02-03T13:01:39;11.40;;;5.22;;
21458;SDS011;10891;49.350;19.386;2023-02-03T13:04:14;14.07;;;6.90;;
21458;SDS011;10891;49.350;19.386;2023-02-03T13:06:53;12.38;;;5.38;;
21458;SDS011;10891;49.350;19.386;2023-02-03T13:09:28;22.20;;;10.23;;
21458;SDS011;10891;49.350;19.386;2023-02-03T13:12:05;10.65;;;4.65;;
21458;SDS011;10891;49.350;19.386;2023-02-03T13:14:38;23.98;;;9.27;;
21458;SDS011;10891;49.350;19.386;2023-02-03T13:17:11;8.50;;;5.15;;
21458;SDS011;10891;49.350;19.386;2023-02-03T13:19:44;6.28;;;3.33;;
21458;SDS011;10891;49.350;19.386;2023-02-03T13:22:15;7.40;;;3.90;;
21458;SDS011;10891;49.350;19.386;2023-02-03T13:24:42;25.98;;;5.45;;
21458;SDS011;10891;49.350;19.386;2023-02-03T13:27:22;7.60;;;4.07;;
21458;SDS011;10891;49.350;19.386;2023-02-03T13:30:08;21.20;;;13.48;;
21458;SDS011;10891;49.350;19.386;2023-02-03T13:35:51;6.50;;;3.85;;
21458;SDS011;10891;49.350;19.386;2023-02-03T13:38:35;9.15;;;5.95;;
21458;SDS011;10891;49.350;19.386;2023-02-03T13:41:16;38.83;;;22.13;;
21458;SDS011;10891;49.350;19.386;2023-02-03T13:43:50;11.13;;;5.82;;
21458;SDS011;10891;49.350;19.386;2023-02-03T13:46:20;14.90;;;5.55;;
21458;SDS011;10891;49.350;19.386;2023-02-03T13:48:48;20.00;;;6.75;;
21458;SDS011;10891;49.350;19.386;2023-02-03T13:51:17;20.23;;;10.10;;
21458;SDS011;10891;49.350;19.386;2023-02-03T13:53:49;24.35;;;12.82;;
21458;SDS011;10891;49.350;19.386;2023-02-03T13:56:24;16.77;;;7.35;;
21458;SDS011;10891;49.350;19.386;2023-02-03T13:59:04;43.92;;;21.75;;
21458;SDS011;10891;49.350;19.386;2023-02-03T14:01:33;36.90;;;18.38;;
21458;SDS011;10891;49.350;19.386;2023-02-03T14:04:03;6.53;;;3.80;;
21458;SDS011;10891;49.350;19.386;2023-02-03T14:09:46;33.45;;;15.50;;
21458;SDS011;10891;49.350;19.386;2023-02-03T14:12:34;14.05;;;5.00;;
21458;SDS011;10891;49.350;19.386;2023-02-03T14:23:49;86.40;;;40.67;;
21458;SDS011;10891;49.350;19.386;2023-02-03T14:26:32;58.63;;;25.05;;
21458;SDS011;10891;49.350;19.386;2023-02-03T14:29:03;46.42;;;19.60;;
21458;SDS011;10891;49.350;19.386;2023-02-03T14:31:31;47.80;;;26.02;;
21458;SDS011;10891;49.350;19.386;2023-02-03T14:34:28;16.42;;;6.80;;
21458;SDS011;10891;49.350;19.386;2023-02-03T14:37:07;30.30;;;17.83;;
21458;SDS011;10891;49.350;19.386;2023-02-03T14:39:50;20.27;;;11.38;;
21458;SDS011;10891;49.350;19.386;2023-02-03T14:45:42;18.55;;;6.80;;
21458;SDS011;10891;49.350;19.386;2023-02-03T14:51:41;21.13;;;12.27;;
21458;SDS011;10891;49.350;19.386;2023-02-03T14:54:22;20.70;;;8.68;;
21458;SDS011;10891;49.350;19.386;2023-02-03T14:57:07;17.90;;;8.07;;
21458;SDS011;10891;49.350;19.386;2023-02-03T14:59:45;28.58;;;14.73;;
21458;SDS011;10891;49.350;19.386;2023-02-03T15:02:20;27.98;;;13.73;;
21458;SDS011;10891;49.350;19.386;2023-02-03T15:04:50;19.13;;;9.68;;
21458;SDS011;10891;49.350;19.386;2023-02-03T15:07:37;10.10;;;4.30;;
21458;SDS011;10891;49.350;19.386;2023-02-03T15:10:12;24.83;;;13.45;;